Racecast

Logan Hamlette

Track 757 (VA) · 7 · Compare head to head

Athlete ratingi
Races 91
Seasons 3 2024 — 2026
Speed rating — all races

Track & Field

TF speed rating

2026 TF

Track 757 (VA) · Grade 7

Date Meet Event Result Place Ratingi Difficultyi PR/SR Flags
2026-06-14 AAU Virginia District Qualifier - North 100m 15.47 6th · 2nd on team -0.9%
2026-06-14 AAU Virginia District Qualifier - North 200m 32.51 4th · 2nd on team -0.9% ★PR SR
2026-05-30 Va Beach Flames Invite 100m 15.58 15th · 4th on team +0.1%
2026-05-30 Va Beach Flames Invite 200m 32.79 5th · 1st on team +0.1%
2026-05-30 Va Beach Flames Invite 100m 15.51 14th · 3rd on team +0.1%
2026-05-24 HR Hurricanes CAT 5 Invite 100m 15.48 5th · 4th on team -1.1% PR SR
2026-05-24 HR Hurricanes CAT 5 Invite 200m 32.67 2nd · 1st on team -1.1% PR SR
2026-05-24 HR Hurricanes CAT 5 Invite 100m 15.35 3rd · 2nd on team -1.1% ★PR SR
2026-03-06 AAU Indoor National Championship 60m 9.44 13th · 1st on team -1.0% ★PR SR
2026-03-06 AAU Indoor National Championship 60m 9.57 21st · 2nd on team -1.0%
2026-03-06 AAU Indoor National Championship 200m 32.69 24th · 1st on team -1.0% PR SR
2026-02-22 3rd Annual HRH Winter Storm Classic 55m 9.12 11th · 2nd on team 0.0% PR SR
2026-02-22 3rd Annual HRH Winter Storm Classic 200m 34.78 3rd · 1st on team 0.0%
2026-02-22 3rd Annual HRH Winter Storm Classic 55m 9.04 6th · 1st on team 0.0% ★PR SR
2026-02-22 3rd Annual HRH Winter Storm Classic 400m 1:21.52 3rd · 1st on team 0.0% ★PR SR
2026-01-18 The VA Showcase 200m 33.28 13th · 1st on team -1.0% PR SR
2026-01-18 The VA Showcase 60m 9.94 18th · 1st on team -1.0% PR SR
2026-01-11 Lighting Track Classic 200m 35.8 9th · 1st on team -1.0% PR SR
2026-01-11 Lighting Track Classic 60m 10.08 19th · 3rd on team -1.0% PR SR
2026-01-04 Coach Miami Presents The DMV's INDOOR SPRINTFEST 60m 10.75 32nd · 2nd on team -1.0%
2026-01-04 Coach Miami Presents The DMV's INDOOR SPRINTFEST 200m 40.17 26th · 1st on team -1.0% SR
2025-12-21 Grant Holloway Invite 60m 10.35 40th · 3rd on team -1.0% PR SR

2025 TF

Track 757 (VA) · Grade 6

Date Meet Event Result Place Ratingi Difficultyi PR/SR Flags
2025-07-05 F.I.A. Freedom Invitational 400m 1:32.24 2nd · 1st on team +0.3%
2025-07-05 F.I.A. Freedom Invitational 100m 17.62 11th · 1st on team +0.3%
2025-07-05 F.I.A. Freedom Invitational 100m 17.85 13th · 2nd on team +0.3%
2025-06-25 AAU Track & Field Region 5 Qualifier 400m 1:25.63 20th · 1st on team -0.9% PR SR
2025-06-14 AAU Virginia District Qualifier (Southern) 400m 1:25.83 12th · 1st on team -1.7% PR SR
2025-06-14 AAU Virginia District Qualifier (Southern) 200m 36.51 22nd · 2nd on team -1.7% PR SR
2025-06-07 Darius Dixon Invite 200m 38.08 10th · 2nd on team -0.7% PR SR
2025-06-07 Darius Dixon Invite 400m 1:33.19 8th · 2nd on team -0.7%
2025-05-31 Va Beach Flames Invite 400m 1:35.03 29th · 3rd on team +0.1%
2025-05-31 Va Beach Flames Invite 200m 38.67 37th · 2nd on team +0.1% PR SR
2025-05-10 Legends Invitational hosted by Eastend Lightning shot 14-10.50 -0.7%
2025-05-10 Legends Invitational hosted by Eastend Lightning 400m 1:28.79 13th · 2nd on team -0.7% PR SR
2025-04-27 TRACK 757 Classic 400m 1:38.34 17th · 2nd on team -0.6% PR SR
2025-04-27 TRACK 757 Classic 100m 17.47 21st · 1st on team -0.6%
2025-03-07 AAU Indoor National Championships shot 2.35m -1.0%
2025-03-07 AAU Indoor National Championships 60m 11.06 97th · 2nd on team -1.0% PR SR
2025-02-22 BWSP Queens and Kings Championships shot 9' 1" +1.1%
2025-02-22 BWSP Queens and Kings Championships 200m 39.02 21st · 1st on team +1.1% PR SR
2025-02-22 BWSP Queens and Kings Championships 55m 10.32 35th · 2nd on team +1.1% PR SR
2025-02-02 Track757 Invite shot 2.86m -1.0%
2025-02-02 Track757 Invite 60m 11.92 33rd · 2nd on team -1.0%
2025-01-18 BWSP Queens and Kings - Meet 2 shot DNS +1.1%
2025-01-05 757 Showdown shot 2.94m -1.0%
2025-01-05 757 Showdown 200m 39.96 20th · 1st on team -1.0% SR
2025-01-05 757 Showdown 60m 11.16 34th · 2nd on team -1.0% PR SR
2024-12-22 Grant Holloway Invite '24 60m 11.42 15th · 4th on team -1.0%
2024-12-22 Grant Holloway Invite '24 100m 15.95 4th · 1st on team -1.0% PR SR
2024-12-22 Grant Holloway Invite '24 60m 11.36 13th · 3rd on team -1.0%
2024-12-15 VB Oceanfront Invitational 60m 11.42 5th · 2nd on team -1.0% PR SR
2024-12-15 VB Oceanfront Invitational 60m 11.17 1st · 1st on team -1.0% PR SR

2024 TF

Track 757 (VA) · Grade 5

Date Meet Event Result Place Ratingi Difficultyi PR/SR Flags
2024-07-13 Cannonball Cooper Invite 100m 18.4 5th · 1st on team 0.0%
2024-07-13 Cannonball Cooper Invite 50m 8.96 7th · 2nd on team 0.0% ★PR SR
2024-06-29 AAU Region 05 National Qualifier lj 7-04.50 -0.9%
2024-06-29 AAU Region 05 National Qualifier 100m 18.76 37th · 1st on team -0.9%
2024-06-29 AAU Region 05 National Qualifier 200m 39.64 39th · 1st on team -0.9%
2024-06-08 AAU Virginia South District Qualifier 50m 9.6 6th · 2nd on team -0.6% PR SR
2024-06-08 AAU Virginia South District Qualifier 200m 39.36 1st · 1st on team -0.6% PR SR
2024-06-08 AAU Virginia South District Qualifier 100m 17.39 2nd · 2nd on team -0.6% PR SR
2024-06-01 VB Flames Invitational 50m 9.82 6th · 2nd on team +0.1% PR SR
2024-06-01 VB Flames Invitational 200m 42.28 8th · 1st on team +0.1% PR SR
2024-06-01 VB Flames Invitational 100m 20.08 19th · 4th on team +0.1%
2024-06-01 VB Flames Invitational 100m 19.36 13th · 3rd on team +0.1%
2024-05-11 2024 EE Lightning "Legends" Invite 100m 18.87 5th · 2nd on team -1.9% PR SR
2024-05-11 2024 EE Lightning "Legends" Invite 50m 10.91 7th · 1st on team -1.9% PR SR
2024-03-03 AAU Indoor National Champonships 60m 11.82 20th · 3rd on team -1.0%
2024-03-03 AAU Indoor National Champonships 200m 43.37 21st · 1st on team -1.0%
2024-02-18 HRH Winter Storm Classic 55m 11.16 9th · 3rd on team 0.0% PR SR
2024-02-18 HRH Winter Storm Classic 100m 19.94 7th · 3rd on team 0.0%
2024-02-18 HRH Winter Storm Classic 200m 44.37 4th · 2nd on team 0.0%
2024-02-18 HRH Winter Storm Classic 55m 11.64 11th · 4th on team 0.0%
2024-01-28 2024 Track757 Indoor Invitational 100m 20.64 6th · 2nd on team -1.0%
2024-01-28 2024 Track757 Indoor Invitational 200m 49.46 7th · 3rd on team -1.0%
2024-01-28 2024 Track757 Indoor Invitational 60m 12.26 10th · 4th on team -1.0% PR SR
2024-01-28 2024 Track757 Indoor Invitational 60m 11.65 2nd · 1st on team -1.0% PR SR
2024-01-20 BWSP Queens and Kings 55m 11.26 11th · 3rd on team +1.1% PR SR
2024-01-20 BWSP Queens and Kings 100m 19.86 4th · 2nd on team +1.1% PR SR
2024-01-20 BWSP Queens and Kings 200m 42.61 3rd · 1st on team +1.1% PR SR
2024-01-20 BWSP Queens and Kings 55m 11.27 12th · 4th on team +1.1%
2024-01-14 VA Showcase Club 60m 12.96 62nd · 1st on team -1.0% PR SR
2024-01-14 VA Showcase Club 200m 46.82 59th · 2nd on team -1.0% PR SR
2024-01-06 BWSP Queens and Kings 55m 11.49 13th · 3rd on team 0.0% PR SR
2024-01-06 BWSP Queens and Kings 200m 47.31 5th · 2nd on team 0.0% PR SR
2024-01-06 BWSP Queens and Kings 100m 20.8 6th · 2nd on team 0.0% PR SR
2023-12-17 2023 Grant Holloway AAU Invitational 200m 55.12 21st · 6th on team -1.0%
2023-12-17 2023 Grant Holloway AAU Invitational 100m 22.46 28th · 6th on team -1.0%
2023-12-17 2023 Grant Holloway AAU Invitational 60m 13.58 36th · 7th on team -1.0% PR SR
2023-12-02 The Virginia Beast HS Invitational 55m 13.2 22nd · 7th on team -1.0% PR SR
2023-12-02 The Virginia Beast HS Invitational 200m 49.13 9th · 4th on team -1.0% PR SR
2023-12-02 The Virginia Beast HS Invitational 100m 21.82 10th · 4th on team -1.0% PR SR